createdAt,value
2022-09-27T00:02:13.379Z,9.65
2022-09-27T00:04:42.841Z,8.45
2022-09-27T00:07:11.841Z,6.30
2022-09-27T00:09:40.389Z,6.55
2022-09-27T00:12:08.497Z,6.28
2022-09-27T00:14:36.662Z,5.78
2022-09-27T00:17:05.628Z,5.28
2022-09-27T00:19:34.167Z,7.03
2022-09-27T00:22:03.836Z,7.63
2022-09-27T00:24:32.543Z,6.82
2022-09-27T00:27:04.023Z,7.45
2022-09-27T00:29:32.625Z,5.43
2022-09-27T00:32:00.989Z,9.20
2022-09-27T00:34:29.201Z,6.35
2022-09-27T00:36:57.379Z,4.90
2022-09-27T00:39:27.190Z,5.55
2022-09-27T00:41:57.596Z,6.15
2022-09-27T00:44:55.305Z,7.18
2022-09-27T00:47:31.465Z,5.38
2022-09-27T00:50:04.042Z,7.07
2022-09-27T00:52:40.062Z,6.57
2022-09-27T00:55:13.527Z,5.82
2022-09-27T00:57:43.956Z,8.23
2022-09-27T01:00:15.488Z,5.40
2022-09-27T01:02:46.927Z,6.82
2022-09-27T01:05:17.525Z,6.05
2022-09-27T01:07:45.723Z,7.00
2022-09-27T01:10:17.049Z,7.63
2022-09-27T01:12:55.099Z,7.15
2022-09-27T01:15:29.449Z,6.45
2022-09-27T01:18:12.879Z,7.25
2022-09-27T01:21:08.780Z,9.27
2022-09-27T01:24:04.470Z,12.00
2022-09-27T01:26:56.216Z,10.32
2022-09-27T01:29:36.389Z,11.20
2022-09-27T01:32:11.322Z,6.97
2022-09-27T01:34:49.929Z,9.07
2022-09-27T01:37:26.193Z,7.38
2022-09-27T01:40:01.870Z,8.18
2022-09-27T01:42:41.582Z,6.43
2022-09-27T01:45:14.818Z,7.43
2022-09-27T01:47:50.843Z,8.48
2022-09-27T01:50:23.445Z,5.78
2022-09-27T01:52:55.497Z,8.18
2022-09-27T01:55:27.524Z,6.53
2022-09-27T01:58:00.868Z,7.72
2022-09-27T02:00:29.960Z,7.90
2022-09-27T02:03:03.266Z,6.90
2022-09-27T02:05:36.493Z,7.13
2022-09-27T02:08:09.719Z,6.50
2022-09-27T02:10:41.497Z,10.77
2022-09-27T02:13:17.180Z,5.95
2022-09-27T02:15:53.766Z,6.30
2022-09-27T02:18:31.208Z,5.47
2022-09-27T02:21:02.280Z,8.70
2022-09-27T02:23:38.275Z,6.40
2022-09-27T02:26:15.597Z,12.38
2022-09-27T02:28:47.314Z,9.23
2022-09-27T02:31:15.790Z,11.25
2022-09-27T02:33:49.739Z,10.20
2022-09-27T02:36:18.361Z,11.15
2022-09-27T02:38:46.868Z,10.60
2022-09-27T02:41:16.514Z,9.57
2022-09-27T02:43:46.669Z,11.18
2022-09-27T02:46:36.758Z,9.27
2022-09-27T02:49:21.058Z,9.93
2022-09-27T02:51:57.922Z,9.13
2022-09-27T02:54:34.325Z,9.45
2022-09-27T02:57:12.913Z,10.35
2022-09-27T02:59:51.191Z,7.43
2022-09-27T03:02:29.338Z,7.75
2022-09-27T03:05:03.624Z,12.45
2022-09-27T03:07:32.457Z,9.25
2022-09-27T03:10:00.791Z,9.63
2022-09-27T03:12:28.909Z,7.45
2022-09-27T03:14:59.084Z,8.63
2022-09-27T03:17:27.735Z,8.48
2022-09-27T03:19:55.846Z,5.72
2022-09-27T03:22:26.776Z,8.05
2022-09-27T03:24:55.083Z,6.72
2022-09-27T03:27:23.236Z,7.65
2022-09-27T03:29:51.652Z,5.97
2022-09-27T03:32:20.878Z,6.40
2022-09-27T03:34:49.022Z,5.93
2022-09-27T03:37:17.245Z,8.60
2022-09-27T03:39:46.781Z,6.38
2022-09-27T03:42:14.976Z,7.20
2022-09-27T03:44:43.469Z,4.80
2022-09-27T03:47:11.919Z,5.28
2022-09-27T03:49:40.172Z,4.00
2022-09-27T03:52:08.691Z,5.50
2022-09-27T03:54:36.894Z,7.30
2022-09-27T03:57:06.442Z,5.78
2022-09-27T03:59:34.562Z,5.00
2022-09-27T04:02:03.497Z,5.07
2022-09-27T04:04:31.662Z,8.80
2022-09-27T04:07:00.328Z,4.45
2022-09-27T04:09:28.661Z,7.20
2022-09-27T04:11:56.825Z,6.03
2022-09-27T04:14:26.536Z,3.72
2022-09-27T04:16:54.888Z,3.92
2022-09-27T04:19:23.135Z,3.53
2022-09-27T04:21:51.341Z,3.78
2022-09-27T04:24:19.519Z,4.60
2022-09-27T04:26:49.227Z,6.47
2022-09-27T04:29:17.439Z,5.00
2022-09-27T04:31:47.154Z,6.90
2022-09-27T04:34:16.916Z,5.10
2022-09-27T04:36:44.408Z,5.13
2022-09-27T04:39:13.324Z,6.60
2022-09-27T04:41:41.515Z,8.57
2022-09-27T04:44:09.934Z,5.00
2022-09-27T04:46:38.346Z,7.32
2022-09-27T04:49:07.941Z,5.15
2022-09-27T04:51:36.119Z,7.13
2022-09-27T04:54:04.996Z,5.05
2022-09-27T04:56:33.250Z,6.65
2022-09-27T04:59:01.821Z,5.68
2022-09-27T05:01:30.369Z,4.93
2022-09-27T05:03:58.730Z,4.30
2022-09-27T05:06:30.094Z,6.25
2022-09-27T05:08:59.014Z,4.30
2022-09-27T05:11:27.474Z,4.05
2022-09-27T05:13:56.241Z,5.13
2022-09-27T05:16:25.055Z,7.72
2022-09-27T05:18:53.272Z,4.85
2022-09-27T05:21:21.560Z,3.85
2022-09-27T05:23:51.232Z,5.60
2022-09-27T05:26:19.409Z,6.35
2022-09-27T05:28:47.798Z,6.03
2022-09-27T05:31:16.382Z,5.47
2022-09-27T05:33:44.550Z,5.50
2022-09-27T05:36:12.844Z,5.10
2022-09-27T05:38:42.482Z,5.70
2022-09-27T05:41:12.109Z,7.68
2022-09-27T05:43:40.532Z,6.03
2022-09-27T05:46:08.964Z,7.90
2022-09-27T05:48:37.705Z,7.78
2022-09-27T05:51:09.318Z,7.88
2022-09-27T05:53:37.878Z,7.68
2022-09-27T05:56:06.913Z,8.63
2022-09-27T05:58:36.510Z,6.32
2022-09-27T06:01:07.975Z,7.72
2022-09-27T06:03:36.269Z,9.33
2022-09-27T06:06:06.923Z,8.25
2022-09-27T06:08:35.809Z,9.38
2022-09-27T06:11:05.155Z,8.90
2022-09-27T06:13:34.748Z,10.77
2022-09-27T06:16:04.932Z,10.93
2022-09-27T06:18:33.430Z,9.10
2022-09-27T06:21:02.680Z,11.70
2022-09-27T06:23:32.759Z,8.32
2022-09-27T06:26:03.563Z,8.40
2022-09-27T06:28:31.976Z,7.18
2022-09-27T06:31:01.265Z,9.25
2022-09-27T06:33:31.062Z,11.57
2022-09-27T06:36:02.688Z,9.45
2022-09-27T06:38:31.426Z,10.00
2022-09-27T06:41:03.174Z,7.13
2022-09-27T06:43:33.547Z,6.65
2022-09-27T06:46:05.958Z,6.57
2022-09-27T06:48:38.489Z,6.68
2022-09-27T06:51:07.139Z,6.93
2022-09-27T06:53:35.256Z,4.65
2022-09-27T06:56:04.175Z,4.85
2022-09-27T06:58:49.955Z,5.60
2022-09-27T07:01:18.553Z,5.75
2022-09-27T07:03:52.470Z,6.35
2022-09-27T07:06:25.457Z,7.63
2022-09-27T07:08:54.925Z,5.47
2022-09-27T07:11:23.546Z,6.32
2022-09-27T07:13:52.052Z,6.55
2022-09-27T07:16:20.718Z,10.05
2022-09-27T07:18:51.538Z,4.63
2022-09-27T07:21:19.859Z,4.90
2022-09-27T07:23:49.163Z,4.38
2022-09-27T07:26:17.540Z,5.60
2022-09-27T07:28:46.086Z,5.43
2022-09-27T07:31:14.738Z,4.28
2022-09-27T07:33:43.599Z,3.40
2022-09-27T07:36:14.452Z,2.65
2022-09-27T07:38:43.191Z,4.50
2022-09-27T07:41:14.184Z,3.95
2022-09-27T07:43:44.347Z,4.07
2022-09-27T07:46:13.646Z,4.43
2022-09-27T07:48:42.364Z,4.72
2022-09-27T07:51:12.540Z,5.78
2022-09-27T07:53:41.795Z,6.70
2022-09-27T07:56:09.885Z,4.57
2022-09-27T07:58:38.116Z,5.53
2022-09-27T08:01:06.840Z,2.90
2022-09-27T08:03:35.131Z,5.03
2022-09-27T08:06:04.909Z,3.38
2022-09-27T08:08:34.449Z,6.30
2022-09-27T08:11:02.575Z,4.70
2022-09-27T08:13:30.815Z,3.60
2022-09-27T08:16:03.383Z,6.22
2022-09-27T08:18:31.631Z,4.30
2022-09-27T08:21:00.372Z,6.38
2022-09-27T08:23:28.518Z,3.63
2022-09-27T08:25:58.831Z,6.40
2022-09-27T08:28:27.428Z,6.75
2022-09-27T08:30:55.715Z,7.88
2022-09-27T08:33:31.283Z,6.95
2022-09-27T08:36:01.849Z,5.95
2022-09-27T08:38:30.045Z,5.97
2022-09-27T08:41:07.775Z,8.13
2022-09-27T08:43:42.746Z,6.47
2022-09-27T08:46:26.363Z,7.47
2022-09-27T08:49:01.999Z,4.60
2022-09-27T08:51:32.337Z,8.60
2022-09-27T08:54:07.029Z,7.05
2022-09-27T08:56:38.246Z,7.60
2022-09-27T08:59:13.446Z,8.32
2022-09-27T09:01:42.608Z,6.28
2022-09-27T09:04:13.567Z,8.45
2022-09-27T09:06:50.818Z,7.45
2022-09-27T09:09:28.100Z,6.65
2022-09-27T09:12:25.717Z,7.60
2022-09-27T09:15:32.249Z,7.82
2022-09-27T09:18:16.691Z,10.45
2022-09-27T09:20:58.411Z,8.85
2022-09-27T09:23:53.646Z,9.55
2022-09-27T09:26:32.127Z,5.85
2022-09-27T09:29:14.060Z,7.20
2022-09-27T09:31:46.769Z,5.95
2022-09-27T09:34:21.515Z,7.00
2022-09-27T09:36:56.937Z,7.25
2022-09-27T09:39:30.072Z,5.68
2022-09-27T09:42:11.486Z,6.00
2022-09-27T09:44:47.557Z,6.97
2022-09-27T09:47:22.885Z,7.65
2022-09-27T09:49:56.880Z,9.75
2022-09-27T09:52:30.602Z,6.75
2022-09-27T09:55:07.564Z,6.85
2022-09-27T09:57:40.147Z,5.07
2022-09-27T10:00:16.451Z,4.40
2022-09-27T10:02:46.132Z,5.68
2022-09-27T10:05:17.443Z,5.47
2022-09-27T10:07:46.669Z,7.03
2022-09-27T10:10:17.717Z,4.95
2022-09-27T10:12:47.376Z,3.80
2022-09-27T10:15:20.251Z,4.88
2022-09-27T10:17:51.825Z,5.03
2022-09-27T10:20:31.177Z,4.80
2022-09-27T10:23:05.875Z,5.95
2022-09-27T10:25:48.974Z,3.65
2022-09-27T10:28:36.278Z,7.73
2022-09-27T10:31:08.138Z,4.65
2022-09-27T10:33:39.065Z,4.15
2022-09-27T10:36:25.033Z,6.22
2022-09-27T10:38:55.226Z,3.10
2022-09-27T10:41:33.592Z,4.18
2022-09-27T10:44:22.110Z,2.83
2022-09-27T10:46:53.542Z,3.08
2022-09-27T10:49:26.842Z,3.53
2022-09-27T10:51:56.990Z,3.10
2022-09-27T10:54:28.657Z,6.35
2022-09-27T10:56:59.419Z,4.82
2022-09-27T10:59:30.897Z,3.58
2022-09-27T11:02:00.935Z,4.00
2022-09-27T11:04:32.455Z,6.70
2022-09-27T11:07:10.559Z,3.42
2022-09-27T11:09:51.293Z,4.20
2022-09-27T11:12:22.059Z,3.90
2022-09-27T11:15:00.339Z,5.22
2022-09-27T11:17:39.048Z,4.60
2022-09-27T11:20:18.273Z,5.65
2022-09-27T11:23:19.426Z,3.55
2022-09-27T11:26:02.407Z,5.38
2022-09-27T11:28:43.347Z,7.57
2022-09-27T11:31:20.002Z,5.25
2022-09-27T11:34:17.646Z,6.40
2022-09-27T11:37:01.337Z,6.40
2022-09-27T11:39:38.544Z,5.82
2022-09-27T11:42:24.009Z,6.13
2022-09-27T11:45:31.854Z,6.18
2022-09-27T11:48:00.622Z,7.88
2022-09-27T11:50:59.609Z,5.80
2022-09-27T11:53:44.834Z,6.10
2022-09-27T11:56:23.223Z,6.47
2022-09-27T11:59:02.327Z,8.70
2022-09-27T12:01:40.344Z,5.65
2022-09-27T12:04:47.550Z,7.45
2022-09-27T12:07:25.187Z,7.25
2022-09-27T12:09:58.751Z,5.75
2022-09-27T12:12:30.583Z,5.10
2022-09-27T12:15:06.749Z,5.15
2022-09-27T12:17:39.775Z,10.40
2022-09-27T12:20:15.880Z,6.93
2022-09-27T12:22:59.674Z,9.82
2022-09-27T12:25:33.030Z,9.85
2022-09-27T12:28:08.789Z,5.00
2022-09-27T12:30:41.749Z,5.70
2022-09-27T12:33:19.007Z,8.18
2022-09-27T12:35:52.597Z,8.23
2022-09-27T12:38:26.971Z,6.25
2022-09-27T12:40:59.680Z,7.75
2022-09-27T12:43:31.902Z,5.67
2022-09-27T12:46:08.942Z,4.65
2022-09-27T12:48:46.726Z,5.72
2022-09-27T12:51:17.092Z,6.57
2022-09-27T12:54:02.269Z,11.98
2022-09-27T12:56:40.791Z,8.32
2022-09-27T12:59:40.649Z,8.88
2022-09-27T13:02:44.583Z,7.60
2022-09-27T13:05:51.736Z,9.40
2022-09-27T13:08:36.646Z,10.30
2022-09-27T13:11:12.972Z,10.07
2022-09-27T13:13:41.938Z,7.15
2022-09-27T13:16:11.181Z,8.45
2022-09-27T13:19:01.908Z,8.65
2022-09-27T13:21:56.189Z,7.47
2022-09-27T13:27:43.989Z,8.60
2022-09-27T13:30:45.538Z,5.95
2022-09-27T13:33:33.087Z,7.47
2022-09-27T13:36:23.076Z,7.40
2022-09-27T13:39:15.797Z,6.63
2022-09-27T13:42:01.410Z,8.85
2022-09-27T13:44:41.664Z,5.70
2022-09-27T13:47:26.710Z,6.53
2022-09-27T13:49:58.397Z,5.85
2022-09-27T13:52:33.923Z,6.53
2022-09-27T13:55:03.194Z,7.10
2022-09-27T13:57:50.288Z,4.38
2022-09-27T14:00:22.888Z,5.60
2022-09-27T14:03:02.863Z,4.47
2022-09-27T14:05:36.803Z,6.90
2022-09-27T14:08:06.635Z,4.20
2022-09-27T14:10:37.338Z,5.28
2022-09-27T14:13:07.401Z,6.32
2022-09-27T14:15:37.934Z,7.93
2022-09-27T14:18:08.657Z,7.30
2022-09-27T14:20:41.956Z,6.03
2022-09-27T14:23:19.131Z,5.90
2022-09-27T14:25:48.671Z,3.78
2022-09-27T14:28:25.055Z,5.95
2022-09-27T14:31:09.080Z,4.80
2022-09-27T14:33:37.312Z,4.82
2022-09-27T14:36:27.467Z,5.43
2022-09-27T14:38:58.021Z,6.00
2022-09-27T14:41:28.372Z,3.70
2022-09-27T14:43:56.525Z,4.80
2022-09-27T14:46:31.456Z,5.28
2022-09-27T14:49:00.347Z,5.85
2022-09-27T14:51:31.597Z,3.92
2022-09-27T14:54:04.526Z,4.15
2022-09-27T14:56:37.592Z,3.38
2022-09-27T14:59:09.421Z,4.55
2022-09-27T15:01:39.814Z,6.32
2022-09-27T15:04:14.943Z,6.57
2022-09-27T15:06:45.480Z,7.38
2022-09-27T15:09:15.908Z,5.40
2022-09-27T15:11:49.480Z,4.72
2022-09-27T15:14:20.452Z,6.13
2022-09-27T15:16:52.509Z,5.15
2022-09-27T15:19:27.176Z,5.13
2022-09-27T15:21:57.334Z,5.82
2022-09-27T15:24:40.066Z,6.05
2022-09-27T15:27:17.618Z,8.82
2022-09-27T15:29:51.463Z,5.03
2022-09-27T15:32:24.858Z,4.47
2022-09-27T15:34:53.658Z,4.47
2022-09-27T15:37:36.213Z,9.52
2022-09-27T15:40:56.055Z,6.63
2022-09-27T15:43:30.129Z,5.13
2022-09-27T15:46:03.293Z,6.00
2022-09-27T15:48:35.430Z,7.38
2022-09-27T15:51:03.569Z,4.82
2022-09-27T15:53:46.364Z,5.93
2022-09-27T15:56:16.654Z,8.70
2022-09-27T15:58:45.936Z,5.15
2022-09-27T16:01:21.348Z,5.45
2022-09-27T16:03:51.400Z,6.28
2022-09-27T16:06:20.009Z,7.78
2022-09-27T16:08:48.333Z,5.85
2022-09-27T16:11:18.328Z,4.68
2022-09-27T16:13:46.621Z,6.50
2022-09-27T16:16:19.045Z,6.25
2022-09-27T16:18:47.514Z,8.02
2022-09-27T16:21:17.664Z,8.70
2022-09-27T16:23:46.191Z,10.30
2022-09-27T16:26:14.532Z,7.72
2022-09-27T16:28:42.860Z,7.40
2022-09-27T16:31:12.488Z,6.88
2022-09-27T16:33:41.025Z,6.50
2022-09-27T16:36:14.620Z,6.18
2022-09-27T16:41:12.389Z,5.93
2022-09-27T16:43:41.506Z,6.90
2022-09-27T16:46:11.781Z,9.25
2022-09-27T16:48:40.718Z,7.43
2022-09-27T16:51:30.160Z,11.00
2022-09-27T16:53:59.736Z,6.78
2022-09-27T16:56:29.103Z,6.40
2022-09-27T16:58:57.406Z,12.32
2022-09-27T17:01:25.664Z,12.20
2022-09-27T17:03:57.426Z,10.73
2022-09-27T17:06:26.047Z,11.50
2022-09-27T17:08:54.558Z,12.52
2022-09-27T17:11:24.230Z,10.38
2022-09-27T17:13:56.559Z,10.13
2022-09-27T17:16:25.832Z,8.95
2022-09-27T17:18:54.122Z,8.30
2022-09-27T17:21:22.407Z,8.88
2022-09-27T17:23:50.576Z,7.97
2022-09-27T17:26:20.608Z,9.30
2022-09-27T17:28:51.240Z,7.32
2022-09-27T17:31:20.828Z,13.65
2022-09-27T17:33:55.519Z,6.95
2022-09-27T17:36:27.544Z,7.55
2022-09-27T17:38:56.012Z,9.27
2022-09-27T17:41:26.160Z,9.45
2022-09-27T17:43:59.122Z,8.10
2022-09-27T17:46:29.402Z,9.90
2022-09-27T17:49:15.856Z,7.78
2022-09-27T17:51:47.598Z,12.40
2022-09-27T17:54:16.861Z,11.77
2022-09-27T17:56:45.695Z,15.68
2022-09-27T17:59:16.962Z,10.52
2022-09-27T18:01:47.939Z,12.77
2022-09-27T18:04:19.669Z,10.00
2022-09-27T18:06:49.001Z,11.18
2022-09-27T18:09:18.017Z,10.35
2022-09-27T18:11:46.275Z,10.30
2022-09-27T18:14:16.008Z,9.90
2022-09-27T18:16:44.947Z,9.05
2022-09-27T18:19:15.582Z,9.65
2022-09-27T18:21:44.046Z,10.02
2022-09-27T18:24:14.812Z,10.35
2022-09-27T18:26:44.225Z,11.43
2022-09-27T18:29:14.192Z,14.18
2022-09-27T18:31:48.468Z,8.55
2022-09-27T18:34:18.179Z,12.05
2022-09-27T18:36:47.329Z,9.70
2022-09-27T18:39:19.452Z,13.18
2022-09-27T18:41:49.357Z,11.90
2022-09-27T18:44:18.781Z,12.73
2022-09-27T18:46:49.593Z,12.98
2022-09-27T18:49:21.071Z,14.57
2022-09-27T18:51:52.148Z,13.88
2022-09-27T18:54:21.782Z,12.10
2022-09-27T18:56:52.377Z,12.32
2022-09-27T18:59:21.503Z,11.30
2022-09-27T19:01:51.828Z,13.93
2022-09-27T19:04:24.812Z,12.00
2022-09-27T19:06:53.953Z,9.43
2022-09-27T19:09:22.374Z,12.90
2022-09-27T19:11:50.608Z,9.35
2022-09-27T19:14:21.529Z,11.13
2022-09-27T19:16:52.084Z,9.88
2022-09-27T19:19:21.164Z,8.68
2022-09-27T19:21:50.068Z,8.18
2022-09-27T19:24:18.966Z,7.53
2022-09-27T19:26:47.340Z,10.23
2022-09-27T19:29:15.775Z,5.95
2022-09-27T19:31:44.138Z,6.55
2022-09-27T19:34:14.267Z,9.68
2022-09-27T19:36:42.813Z,6.55
2022-09-27T19:39:10.967Z,7.05
2022-09-27T19:41:40.366Z,9.50
2022-09-27T19:44:08.853Z,10.75
2022-09-27T19:46:37.608Z,9.48
2022-09-27T19:49:06.025Z,10.25
2022-09-27T19:51:35.753Z,7.28
2022-09-27T19:54:04.346Z,8.43
2022-09-27T19:56:32.610Z,9.35
2022-09-27T19:59:06.227Z,8.85
2022-09-27T20:01:35.694Z,7.50
2022-09-27T20:04:04.237Z,6.50
2022-09-27T20:06:33.171Z,7.00
2022-09-27T20:09:03.944Z,10.57
2022-09-27T20:11:33.353Z,8.98
2022-09-27T20:14:01.595Z,7.80
2022-09-27T20:16:30.140Z,7.47
2022-09-27T20:19:00.317Z,9.52
2022-09-27T20:21:32.722Z,6.35
2022-09-27T20:24:04.227Z,8.10
2022-09-27T20:26:34.775Z,6.75
2022-09-27T20:29:04.129Z,7.45
2022-09-27T20:31:34.615Z,8.77
2022-09-27T20:34:02.770Z,6.30
2022-09-27T20:36:32.621Z,7.13
2022-09-27T20:39:03.439Z,8.82
2022-09-27T20:41:34.858Z,7.70
2022-09-27T20:44:05.096Z,8.38
2022-09-27T20:46:34.169Z,10.35
2022-09-27T20:49:05.454Z,10.40
2022-09-27T20:51:35.268Z,7.35
2022-09-27T20:54:04.841Z,9.80
2022-09-27T20:56:37.102Z,7.72
2022-09-27T20:59:07.911Z,8.55
2022-09-27T21:01:38.809Z,7.28
2022-09-27T21:04:07.081Z,7.80
2022-09-27T21:06:35.270Z,7.85
2022-09-27T21:09:06.595Z,6.50
2022-09-27T21:11:36.360Z,6.63
2022-09-27T21:14:04.993Z,7.95
2022-09-27T21:16:36.412Z,6.15
2022-09-27T21:19:04.850Z,7.60
2022-09-27T21:21:33.059Z,6.97
2022-09-27T21:24:03.009Z,6.05
2022-09-27T21:26:32.880Z,5.63
2022-09-27T21:29:06.628Z,5.63
2022-09-27T21:34:05.988Z,7.15
2022-09-27T21:36:35.982Z,7.60
2022-09-27T21:39:05.110Z,8.20
2022-09-27T21:41:33.307Z,9.40
2022-09-27T21:44:05.080Z,9.82
2022-09-27T21:46:33.416Z,6.60
2022-09-27T21:49:03.005Z,7.40
2022-09-27T21:51:33.380Z,8.25
2022-09-27T21:54:03.294Z,8.13
2022-09-27T21:56:33.190Z,7.43
2022-09-27T21:59:03.408Z,6.70
2022-09-27T22:01:33.324Z,7.30
2022-09-27T22:04:02.781Z,7.82
2022-09-27T22:06:33.020Z,7.10
2022-09-27T22:09:03.119Z,8.65
2022-09-27T22:11:34.288Z,5.20
2022-09-27T22:14:03.974Z,8.57
2022-09-27T22:16:32.189Z,8.02
2022-09-27T22:19:01.258Z,6.88
2022-09-27T22:21:32.179Z,6.20
2022-09-27T22:24:06.697Z,6.53
2022-09-27T22:26:37.853Z,7.78
2022-09-27T22:29:08.232Z,6.50
2022-09-27T22:31:38.038Z,7.82
2022-09-27T22:34:08.069Z,7.82
2022-09-27T22:36:36.772Z,7.57
2022-09-27T22:39:05.285Z,6.15
2022-09-27T22:41:33.462Z,6.63
2022-09-27T22:44:01.958Z,6.07
2022-09-27T22:46:31.581Z,5.22
2022-09-27T22:48:59.866Z,5.93
2022-09-27T22:51:28.064Z,6.45
2022-09-27T22:53:56.381Z,7.50
2022-09-27T22:56:24.538Z,5.78
2022-09-27T22:58:52.933Z,5.40
2022-09-27T23:01:23.318Z,3.58
2022-09-27T23:03:54.941Z,4.07
2022-09-27T23:06:24.102Z,5.20
2022-09-27T23:08:53.625Z,4.97
2022-09-27T23:11:23.910Z,6.28
2022-09-27T23:13:53.006Z,5.07
2022-09-27T23:16:24.799Z,3.38
2022-09-27T23:18:57.069Z,4.97
2022-09-27T23:21:26.354Z,5.53
2022-09-27T23:23:56.270Z,5.80
2022-09-27T23:26:26.241Z,4.80
2022-09-27T23:28:55.292Z,3.60
2022-09-27T23:31:24.277Z,4.97
2022-09-27T23:33:54.711Z,2.75
2022-09-27T23:36:26.365Z,5.22
2022-09-27T23:38:55.813Z,5.32
2022-09-27T23:41:24.172Z,4.95
2022-09-27T23:43:53.463Z,5.45
2022-09-27T23:46:22.346Z,4.75
2022-09-27T23:48:50.789Z,3.33
2022-09-27T23:51:20.418Z,5.10
2022-09-27T23:53:48.601Z,7.72
2022-09-27T23:56:18.095Z,4.38
2022-09-27T23:58:47.455Z,3.97
